createdAt,value
2018-01-03T00:02:21.480Z,73.63
2018-01-03T00:04:49.104Z,70.73
2018-01-03T00:07:16.671Z,72.73
2018-01-03T00:09:44.246Z,71.53
2018-01-03T00:12:11.855Z,66.47
2018-01-03T00:14:39.430Z,66.37
2018-01-03T00:17:07.001Z,66.97
2018-01-03T00:19:34.609Z,63.60
2018-01-03T00:22:02.207Z,65.20
2018-01-03T00:24:29.805Z,74.17
2018-01-03T00:26:57.402Z,67.43
2018-01-03T00:29:24.989Z,54.33
2018-01-03T00:31:52.559Z,62.97
2018-01-03T00:34:20.173Z,57.58
2018-01-03T00:36:47.747Z,45.40
2018-01-03T00:39:15.310Z,46.87
2018-01-03T00:41:42.936Z,47.37
2018-01-03T00:44:10.522Z,49.00
2018-01-03T00:46:38.103Z,47.47
2018-01-03T00:49:05.728Z,48.83
2018-01-03T00:51:33.349Z,47.90
2018-01-03T00:54:00.926Z,47.27
2018-01-03T00:56:28.538Z,45.30
2018-01-03T00:58:56.115Z,45.80
2018-01-03T01:01:23.736Z,48.27
2018-01-03T01:03:51.376Z,40.80
2018-01-03T01:06:18.958Z,39.27
2018-01-03T01:08:46.537Z,40.90
2018-01-03T01:11:14.162Z,39.40
2018-01-03T01:13:41.731Z,51.30
2018-01-03T01:16:09.301Z,46.87
2018-01-03T01:18:36.895Z,48.77
2018-01-03T01:21:04.500Z,47.13
2018-01-03T01:23:32.084Z,50.90
2018-01-03T01:25:59.713Z,53.40
2018-01-03T01:28:27.270Z,50.70
2018-01-03T01:30:54.862Z,51.97
2018-01-03T01:33:22.477Z,50.87
2018-01-03T01:35:50.069Z,54.30
2018-01-03T01:38:17.654Z,47.50
2018-01-03T01:40:45.250Z,53.70
2018-01-03T01:43:12.837Z,47.73
2018-01-03T01:45:40.397Z,46.40
2018-01-03T01:48:08.010Z,43.87
2018-01-03T01:50:35.569Z,42.63
2018-01-03T01:53:03.173Z,45.60
2018-01-03T01:55:30.785Z,42.83
2018-01-03T01:57:58.330Z,41.70
2018-01-03T02:00:25.882Z,43.90
2018-01-03T02:02:53.603Z,41.80
2018-01-03T02:05:21.161Z,46.88
2018-01-03T02:07:48.869Z,39.57
2018-01-03T02:10:16.489Z,42.07
2018-01-03T02:12:44.063Z,42.53
2018-01-03T02:15:11.640Z,38.47
2018-01-03T02:17:39.247Z,40.23
2018-01-03T02:20:06.816Z,38.70
2018-01-03T02:22:34.409Z,40.70
2018-01-03T02:25:02.021Z,39.60
2018-01-03T02:27:29.582Z,42.80
2018-01-03T02:29:57.147Z,45.70
2018-01-03T02:32:24.757Z,44.27
2018-01-03T02:34:52.344Z,45.93
2018-01-03T02:37:19.923Z,45.30
2018-01-03T02:39:47.570Z,41.97
2018-01-03T02:42:15.162Z,42.70
2018-01-03T02:44:42.734Z,41.17
2018-01-03T02:47:10.334Z,35.97
2018-01-03T02:49:37.909Z,40.30
2018-01-03T02:52:05.489Z,38.30
2018-01-03T02:54:33.094Z,39.57
2018-01-03T02:57:00.851Z,40.67
2018-01-03T02:59:28.445Z,39.83
2018-01-03T03:01:56.064Z,42.27
2018-01-03T03:04:23.696Z,44.40
2018-01-03T03:06:51.275Z,44.50
2018-01-03T03:09:18.884Z,41.50
2018-01-03T03:11:46.430Z,38.63
2018-01-03T03:14:13.999Z,39.00
2018-01-03T03:16:41.613Z,37.40
2018-01-03T03:19:09.184Z,31.63
2018-01-03T03:21:36.750Z,40.90
2018-01-03T03:24:04.392Z,43.50
2018-01-03T03:26:31.980Z,42.67
2018-01-03T03:28:59.558Z,42.47
2018-01-03T03:31:27.172Z,40.60
2018-01-03T03:33:54.850Z,39.50
2018-01-03T03:36:22.438Z,39.70
2018-01-03T03:38:50.041Z,41.53
2018-01-03T03:41:17.607Z,40.20
2018-01-03T03:43:45.184Z,39.33
2018-01-03T03:46:12.793Z,40.57
2018-01-03T03:48:40.420Z,43.60
2018-01-03T03:51:08.002Z,37.07
2018-01-03T03:53:35.666Z,39.37
2018-01-03T03:56:03.251Z,41.23
2018-01-03T03:58:30.830Z,41.97
2018-01-03T04:00:58.440Z,37.97
2018-01-03T04:03:26.007Z,37.23
2018-01-03T04:05:53.571Z,36.93
2018-01-03T04:08:21.186Z,39.60
2018-01-03T04:10:48.753Z,39.17
2018-01-03T04:13:16.317Z,37.83
2018-01-03T04:15:43.920Z,36.80
2018-01-03T04:18:11.494Z,36.80
2018-01-03T04:20:39.051Z,37.87
2018-01-03T04:23:06.656Z,35.97
2018-01-03T04:25:34.253Z,37.93
2018-01-03T04:28:01.827Z,39.37
2018-01-03T04:30:29.441Z,36.83
2018-01-03T04:32:57.014Z,48.07
2018-01-03T04:35:24.593Z,35.00
2018-01-03T04:37:52.197Z,37.10
2018-01-03T04:40:19.777Z,32.33
2018-01-03T04:42:47.369Z,31.20
2018-01-03T04:45:14.985Z,30.57
2018-01-03T04:47:42.546Z,41.03
2018-01-03T04:50:10.128Z,39.90
2018-01-03T04:52:37.754Z,38.30
2018-01-03T04:55:05.339Z,36.10
2018-01-03T04:57:32.914Z,34.07
2018-01-03T05:00:00.607Z,35.17
2018-01-03T05:02:28.176Z,33.40
2018-01-03T05:04:55.761Z,33.60
2018-01-03T05:07:23.398Z,33.90
2018-01-03T05:09:50.957Z,33.57
2018-01-03T05:12:18.530Z,31.03
2018-01-03T05:14:46.144Z,31.60
2018-01-03T05:17:13.711Z,31.87
2018-01-03T05:19:41.280Z,31.20
2018-01-03T05:22:08.890Z,32.80
2018-01-03T05:24:36.477Z,35.37
2018-01-03T05:27:04.052Z,33.77
2018-01-03T05:29:31.673Z,35.60
2018-01-03T05:31:59.238Z,35.70
2018-01-03T05:34:26.805Z,34.63
2018-01-03T05:36:54.419Z,38.70
2018-01-03T05:39:21.991Z,38.47
2018-01-03T05:41:49.557Z,33.20
2018-01-03T05:44:17.164Z,33.40
2018-01-03T05:46:44.755Z,33.93
2018-01-03T05:49:12.380Z,35.27
2018-01-03T05:51:39.981Z,33.53
2018-01-03T05:54:07.559Z,32.30
2018-01-03T05:56:35.136Z,37.23
2018-01-03T05:59:02.858Z,35.80
2018-01-03T06:01:30.641Z,33.97
2018-01-03T06:03:58.313Z,37.13
2018-01-03T06:06:25.918Z,34.27
2018-01-03T06:08:53.487Z,37.30
2018-01-03T06:11:21.069Z,37.17
2018-01-03T06:13:48.733Z,34.80
2018-01-03T06:16:16.302Z,34.33
2018-01-03T06:18:43.915Z,41.53
2018-01-03T06:21:11.514Z,36.63
2018-01-03T06:23:39.073Z,35.70
2018-01-03T06:26:06.661Z,31.10
2018-01-03T06:28:34.275Z,34.10
2018-01-03T06:31:01.847Z,32.20
2018-01-03T06:33:29.472Z,34.87
2018-01-03T06:35:57.093Z,34.97
2018-01-03T06:38:24.678Z,35.37
2018-01-03T06:40:52.271Z,41.53
2018-01-03T06:43:19.879Z,39.00
2018-01-03T06:45:47.443Z,37.57
2018-01-03T06:48:15.006Z,36.27
2018-01-03T06:50:42.628Z,47.60
2018-01-03T06:53:10.195Z,43.40
2018-01-03T06:55:37.769Z,44.73
2018-01-03T06:58:05.391Z,39.83
2018-01-03T07:00:32.973Z,40.30
2018-01-03T07:03:00.553Z,43.97
2018-01-03T07:05:28.155Z,38.50
2018-01-03T07:07:55.719Z,39.30
2018-01-03T07:10:23.612Z,35.97
2018-01-03T07:12:51.233Z,35.70
2018-01-03T07:15:18.820Z,37.43
2018-01-03T07:17:46.382Z,35.90
2018-01-03T07:20:13.994Z,35.33
2018-01-03T07:22:41.663Z,43.37
2018-01-03T07:25:09.235Z,36.07
2018-01-03T07:27:36.869Z,40.97
2018-01-03T07:30:04.449Z,35.90
2018-01-03T07:32:32.023Z,37.70
2018-01-03T07:34:59.635Z,40.57
2018-01-03T07:37:27.217Z,42.00
2018-01-03T07:39:54.844Z,40.20
2018-01-03T07:42:22.473Z,45.63
2018-01-03T07:44:50.082Z,83.43
2018-01-03T07:47:17.662Z,62.03
2018-01-03T07:49:45.244Z,40.10
2018-01-03T07:52:12.853Z,36.60
2018-01-03T07:54:40.413Z,35.97
2018-01-03T07:57:07.977Z,33.37
2018-01-03T07:59:35.594Z,32.30
2018-01-03T08:02:03.184Z,28.47
2018-01-03T08:04:30.751Z,28.83
2018-01-03T08:06:58.351Z,30.40
2018-01-03T08:09:25.938Z,29.37
2018-01-03T08:11:53.517Z,27.73
2018-01-03T08:14:21.134Z,25.30
2018-01-03T08:16:48.716Z,26.87
2018-01-03T08:19:16.314Z,25.00
2018-01-03T08:21:44.009Z,22.03
2018-01-03T08:24:11.584Z,16.03
2018-01-03T08:26:39.156Z,16.17
2018-01-03T08:29:06.818Z,18.63
2018-01-03T08:31:34.387Z,17.90
2018-01-03T08:34:01.964Z,18.00
2018-01-03T08:36:29.580Z,16.87
2018-01-03T08:38:57.198Z,21.53
2018-01-03T08:41:24.763Z,10.00
2018-01-03T08:43:52.355Z,9.37
2018-01-03T08:46:19.936Z,7.03
2018-01-03T08:48:47.509Z,7.17
2018-01-03T08:51:15.134Z,4.60
2018-01-03T08:53:42.729Z,7.50
2018-01-03T08:56:10.313Z,7.37
2018-01-03T08:58:37.928Z,11.43
2018-01-03T09:01:05.509Z,8.37
2018-01-03T09:03:33.076Z,8.10
2018-01-03T09:06:00.680Z,8.53
2018-01-03T09:08:28.258Z,7.90
2018-01-03T09:10:55.816Z,7.70
2018-01-03T09:13:23.446Z,6.97
2018-01-03T09:15:51.019Z,8.60
2018-01-03T09:18:19.457Z,7.87
2018-01-03T09:20:47.070Z,7.40
2018-01-03T09:23:14.659Z,5.30
2018-01-03T09:25:42.361Z,6.90
2018-01-03T09:28:09.957Z,6.80
2018-01-03T09:30:37.527Z,6.70
2018-01-03T09:33:05.134Z,8.20
2018-01-03T09:35:32.767Z,7.10
2018-01-03T09:38:00.345Z,7.10
2018-01-03T09:40:27.916Z,6.27
2018-01-03T09:42:55.532Z,8.93
2018-01-03T09:45:23.108Z,19.33
2018-01-03T09:47:50.673Z,19.93
2018-01-03T09:50:18.297Z,8.33
2018-01-03T09:52:45.875Z,9.10
2018-01-03T09:55:13.465Z,9.10
2018-01-03T09:57:41.091Z,7.80
2018-01-03T10:00:08.672Z,7.60
2018-01-03T10:02:36.280Z,9.37
2018-01-03T10:05:03.926Z,9.97
2018-01-03T10:07:31.516Z,9.40
2018-01-03T10:09:59.091Z,8.17
2018-01-03T10:12:26.718Z,6.60
2018-01-03T10:14:54.288Z,8.00
2018-01-03T10:17:22.339Z,11.57
2018-01-03T10:19:49.949Z,8.87
2018-01-03T10:22:17.539Z,10.70
2018-01-03T10:24:45.128Z,10.20
2018-01-03T10:27:12.735Z,9.00
2018-01-03T10:29:40.325Z,10.73
2018-01-03T10:32:07.904Z,9.10
2018-01-03T10:34:35.565Z,8.00
2018-01-03T10:37:03.132Z,7.77
2018-01-03T10:39:30.704Z,9.63
2018-01-03T10:41:58.342Z,8.67
2018-01-03T10:44:25.918Z,12.07
2018-01-03T10:46:53.490Z,9.10
2018-01-03T10:49:21.109Z,7.70
2018-01-03T10:51:48.687Z,7.30
2018-01-03T10:54:16.251Z,6.07
2018-01-03T10:56:43.833Z,6.73
2018-01-03T10:59:11.391Z,5.67
2018-01-03T11:01:38.983Z,6.90
2018-01-03T11:04:06.673Z,8.23
2018-01-03T11:06:34.270Z,7.00
2018-01-03T11:09:01.844Z,8.50
2018-01-03T11:11:29.462Z,6.07
2018-01-03T11:13:57.041Z,9.97
2018-01-03T11:16:24.607Z,6.70
2018-01-03T11:18:52.202Z,6.80
2018-01-03T11:21:19.842Z,3.97
2018-01-03T11:23:47.428Z,4.33
2018-01-03T11:26:15.064Z,10.73
2018-01-03T11:28:43.086Z,5.43
2018-01-03T11:31:10.667Z,5.27
2018-01-03T11:33:38.337Z,9.20
2018-01-03T11:36:06.079Z,7.67
2018-01-03T11:38:33.892Z,7.20
2018-01-03T11:41:01.519Z,10.27
2018-01-03T11:43:29.117Z,8.00
2018-01-03T11:45:56.704Z,10.30
2018-01-03T11:48:24.331Z,8.20
2018-01-03T11:50:51.912Z,8.97
2018-01-03T11:53:19.494Z,10.33
2018-01-03T11:55:47.118Z,4.80
2018-01-03T11:58:14.701Z,4.63
2018-01-03T12:00:42.311Z,6.30
2018-01-03T12:03:09.935Z,6.90
2018-01-03T12:05:37.525Z,12.30
2018-01-03T12:08:05.108Z,7.33
2018-01-03T12:10:32.731Z,8.80
2018-01-03T12:13:00.306Z,10.07
2018-01-03T12:15:27.869Z,9.47
2018-01-03T12:17:55.508Z,4.70
2018-01-03T12:20:23.089Z,3.97
2018-01-03T12:22:50.673Z,3.70
2018-01-03T12:25:18.269Z,6.00
2018-01-03T12:27:45.838Z,7.20
2018-01-03T12:30:13.391Z,8.23
2018-01-03T12:32:40.992Z,8.17
2018-01-03T12:35:08.573Z,7.80
2018-01-03T12:37:36.137Z,8.90
2018-01-03T12:40:03.855Z,12.47
2018-01-03T12:42:31.419Z,8.47
2018-01-03T12:44:59.027Z,6.10
2018-01-03T12:47:26.638Z,5.77
2018-01-03T12:49:54.212Z,7.87
2018-01-03T12:52:21.775Z,6.53
2018-01-03T12:54:49.414Z,6.30
2018-01-03T12:57:16.989Z,6.27
2018-01-03T12:59:44.716Z,7.10
2018-01-03T13:02:12.326Z,7.97
2018-01-03T13:04:39.906Z,10.10
2018-01-03T13:07:07.529Z,7.23
2018-01-03T13:09:35.141Z,5.87
2018-01-03T13:12:02.838Z,9.47
2018-01-03T13:14:30.487Z,11.40
2018-01-03T13:16:58.119Z,14.90
2018-01-03T13:19:25.738Z,8.30
2018-01-03T13:21:53.325Z,8.53
2018-01-03T13:24:21.038Z,9.10
2018-01-03T13:26:48.593Z,9.40
2018-01-03T13:29:16.177Z,11.70
2018-01-03T13:31:43.850Z,9.67
2018-01-03T13:34:11.431Z,8.00
2018-01-03T13:36:38.998Z,10.63
2018-01-03T13:39:06.685Z,14.30
2018-01-03T13:41:34.248Z,15.50
2018-01-03T13:44:01.804Z,9.20
2018-01-03T13:46:29.417Z,11.70
2018-01-03T13:48:57.016Z,11.10
2018-01-03T13:51:24.579Z,7.70
2018-01-03T13:53:52.280Z,14.70
2018-01-03T13:56:19.936Z,7.20
2018-01-03T13:58:47.498Z,7.77
2018-01-03T14:01:15.482Z,10.77
2018-01-03T14:03:43.055Z,21.10
2018-01-03T14:06:10.782Z,24.70
2018-01-03T14:08:38.400Z,16.93
2018-01-03T14:11:06.028Z,19.67
2018-01-03T14:13:33.597Z,14.90
2018-01-03T14:16:01.432Z,14.60
2018-01-03T14:18:29.243Z,11.77
2018-01-03T14:20:56.835Z,11.80
2018-01-03T14:23:24.457Z,21.50
2018-01-03T14:25:52.040Z,15.30
2018-01-03T14:28:20.894Z,10.23
2018-01-03T14:30:48.569Z,9.13
2018-01-03T14:33:16.156Z,9.70
2018-01-03T14:35:43.703Z,9.13
2018-01-03T14:38:11.296Z,9.20
2018-01-03T14:40:38.865Z,9.53
2018-01-03T14:43:06.647Z,14.07
2018-01-03T14:45:34.308Z,11.40
2018-01-03T14:48:01.987Z,10.43
2018-01-03T14:50:29.562Z,11.53
2018-01-03T14:52:57.313Z,11.10
2018-01-03T14:55:24.882Z,19.40
2018-01-03T14:57:52.460Z,24.13
2018-01-03T15:00:20.279Z,19.10
2018-01-03T15:02:48.101Z,18.30
2018-01-03T15:05:15.714Z,32.13
2018-01-03T15:07:43.369Z,18.50
2018-01-03T15:10:11.057Z,17.37
2018-01-03T15:12:38.697Z,19.07
2018-01-03T15:15:06.313Z,15.57
2018-01-03T15:17:33.934Z,18.77
2018-01-03T15:20:01.673Z,21.83
2018-01-03T15:22:29.272Z,12.23
2018-01-03T15:24:56.830Z,14.43
2018-01-03T15:27:24.465Z,15.23
2018-01-03T15:29:52.067Z,10.00
2018-01-03T15:32:19.644Z,8.37
2018-01-03T15:34:47.221Z,8.30
2018-01-03T15:37:14.907Z,8.80
2018-01-03T15:39:42.494Z,10.03
2018-01-03T15:42:10.069Z,10.60
2018-01-03T15:44:37.671Z,13.03
2018-01-03T15:47:05.249Z,13.60
2018-01-03T15:49:33.010Z,10.40
2018-01-03T15:52:00.624Z,10.30
2018-01-03T15:54:28.347Z,9.30
2018-01-03T15:56:58.669Z,13.83
2018-01-03T15:59:29.922Z,11.23
2018-01-03T16:02:00.694Z,10.90
2018-01-03T16:04:28.395Z,21.30
2018-01-03T16:06:56.088Z,13.20
2018-01-03T16:09:23.747Z,10.40
2018-01-03T16:11:51.434Z,10.30
2018-01-03T16:14:19.001Z,10.87
2018-01-03T16:16:46.725Z,8.23
2018-01-03T16:19:14.325Z,11.57
2018-01-03T16:21:41.879Z,14.80
2018-01-03T16:24:09.452Z,10.93
2018-01-03T16:26:37.055Z,9.23
2018-01-03T16:29:04.619Z,12.30
2018-01-03T16:31:32.325Z,17.97
2018-01-03T16:33:59.899Z,26.77
2018-01-03T16:36:27.483Z,29.93
2018-01-03T16:38:55.047Z,16.43
2018-01-03T16:41:22.662Z,19.60
2018-01-03T16:43:50.384Z,18.23
2018-01-03T16:46:18.006Z,18.00
2018-01-03T16:48:45.620Z,18.13
2018-01-03T16:51:13.171Z,15.87
2018-01-03T16:53:40.752Z,14.47
2018-01-03T16:56:12.385Z,15.43
2018-01-03T16:58:44.775Z,19.90
2018-01-03T17:01:16.544Z,31.77
2018-01-03T17:03:44.597Z,18.43
2018-01-03T17:06:12.259Z,16.30
2018-01-03T17:08:39.851Z,15.70
2018-01-03T17:11:07.578Z,14.43
2018-01-03T17:13:35.240Z,12.90
2018-01-03T17:16:02.928Z,14.90
2018-01-03T17:18:30.519Z,13.63
2018-01-03T17:20:58.241Z,13.97
2018-01-03T17:23:25.840Z,19.67
2018-01-03T17:25:53.415Z,15.90
2018-01-03T17:28:20.976Z,20.47
2018-01-03T17:30:48.583Z,25.70
2018-01-03T17:33:16.152Z,18.53
2018-01-03T17:35:43.714Z,15.90
2018-01-03T17:38:11.298Z,18.70
2018-01-03T17:40:38.869Z,20.23
2018-01-03T17:43:06.449Z,19.53
2018-01-03T17:45:34.061Z,18.10
2018-01-03T17:48:01.622Z,17.40
2018-01-03T17:50:29.183Z,17.90
2018-01-03T17:52:56.765Z,13.83
2018-01-03T17:55:24.326Z,14.03
2018-01-03T17:57:51.933Z,16.70
2018-01-03T18:00:19.585Z,19.77
2018-01-03T18:02:47.143Z,37.40
2018-01-03T18:05:14.734Z,33.37
2018-01-03T18:07:42.320Z,104.63
2018-01-03T18:10:10.044Z,142.07
2018-01-03T18:12:37.654Z,101.53
2018-01-03T18:15:05.383Z,92.00
2018-01-03T18:17:32.942Z,77.60
2018-01-03T18:20:00.669Z,62.53
2018-01-03T18:22:28.282Z,51.53
2018-01-03T18:24:56.550Z,34.67
2018-01-03T18:27:24.197Z,44.80
2018-01-03T18:29:51.813Z,43.23
2018-01-03T18:32:19.385Z,43.37
2018-01-03T18:34:46.946Z,33.63
2018-01-03T18:37:14.530Z,26.10
2018-01-03T18:39:42.160Z,24.03
2018-01-03T18:42:09.875Z,35.90
2018-01-03T18:44:37.460Z,36.67
2018-01-03T18:47:04.998Z,43.33
2018-01-03T18:49:32.573Z,40.50
2018-01-03T18:52:00.179Z,34.27
2018-01-03T18:54:27.726Z,39.10
2018-01-03T18:56:55.294Z,30.80
2018-01-03T18:59:22.889Z,24.70
2018-01-03T19:01:50.444Z,25.37
2018-01-03T19:04:17.995Z,23.00
2018-01-03T19:06:45.651Z,21.43
2018-01-03T19:09:13.194Z,23.33
2018-01-03T19:11:40.752Z,22.87
2018-01-03T19:14:08.364Z,23.63
2018-01-03T19:16:35.931Z,24.63
2018-01-03T19:19:03.498Z,62.47
2018-01-03T19:21:31.219Z,31.80
2018-01-03T19:23:58.775Z,28.03
2018-01-03T19:26:26.362Z,23.10
2018-01-03T19:28:53.958Z,21.63
2018-01-03T19:31:21.544Z,22.13
2018-01-03T19:33:49.093Z,22.97
2018-01-03T19:36:16.688Z,27.53
2018-01-03T19:38:44.268Z,28.93
2018-01-03T19:41:11.845Z,36.53
2018-01-03T19:43:39.441Z,29.07
2018-01-03T19:46:06.999Z,29.63
2018-01-03T19:48:34.552Z,27.10
2018-01-03T19:51:02.158Z,34.73
2018-01-03T19:53:29.822Z,37.00
2018-01-03T19:55:57.547Z,37.10
2018-01-03T19:58:25.148Z,38.00
2018-01-03T20:00:52.720Z,28.33
2018-01-03T20:03:20.305Z,27.70
2018-01-03T20:05:47.905Z,24.47
2018-01-03T20:08:15.458Z,26.27
2018-01-03T20:10:43.071Z,26.40
2018-01-03T20:13:10.666Z,26.93
2018-01-03T20:15:38.233Z,27.77
2018-01-03T20:18:05.794Z,27.13
2018-01-03T20:20:33.415Z,69.97
2018-01-03T20:23:01.163Z,86.43
2018-01-03T20:25:28.752Z,74.67
2018-01-03T20:27:56.354Z,53.17
2018-01-03T20:30:23.932Z,37.53
2018-01-03T20:32:51.481Z,53.50
2018-01-03T20:35:19.095Z,44.73
2018-01-03T20:37:46.669Z,28.20
2018-01-03T20:40:14.253Z,44.53
2018-01-03T20:42:42.018Z,57.83
2018-01-03T20:45:09.607Z,69.13
2018-01-03T20:47:37.269Z,62.30
2018-01-03T20:50:04.887Z,65.93
2018-01-03T20:52:32.460Z,67.63
2018-01-03T20:55:00.038Z,63.20
2018-01-03T20:57:27.634Z,56.40
2018-01-03T20:59:55.200Z,59.47
2018-01-03T21:02:22.777Z,48.83
2018-01-03T21:04:50.408Z,54.73
2018-01-03T21:07:18.024Z,60.20
2018-01-03T21:09:45.582Z,39.03
2018-01-03T21:12:13.203Z,36.00
2018-01-03T21:14:40.776Z,34.03
2018-01-03T21:17:08.980Z,35.00
2018-01-03T21:19:36.600Z,45.60
2018-01-03T21:22:04.155Z,42.70
2018-01-03T21:24:31.782Z,55.53
2018-01-03T21:26:59.363Z,48.73
2018-01-03T21:29:27.017Z,51.80
2018-01-03T21:31:54.589Z,53.97
2018-01-03T21:34:22.201Z,48.00
2018-01-03T21:36:49.785Z,47.43
2018-01-03T21:39:17.369Z,45.40
2018-01-03T21:41:44.988Z,46.60
2018-01-03T21:44:12.590Z,45.03
2018-01-03T21:46:40.144Z,47.57
2018-01-03T21:49:07.757Z,43.30
2018-01-03T21:51:35.329Z,44.90
2018-01-03T21:54:02.914Z,46.03
2018-01-03T21:56:30.508Z,45.73
2018-01-03T21:58:58.073Z,58.67
2018-01-03T22:01:25.648Z,64.43
2018-01-03T22:03:53.264Z,48.90
2018-01-03T22:06:20.836Z,46.90
2018-01-03T22:08:48.411Z,42.90
2018-01-03T22:11:16.019Z,44.87
2018-01-03T22:13:43.568Z,45.13
2018-01-03T22:16:11.155Z,47.80
2018-01-03T22:18:38.743Z,45.37
2018-01-03T22:21:06.309Z,44.40
2018-01-03T22:23:33.870Z,43.37
2018-01-03T22:26:01.471Z,42.63
2018-01-03T22:28:29.049Z,37.83
2018-01-03T22:30:56.610Z,41.50
2018-01-03T22:33:24.186Z,39.30
2018-01-03T22:35:51.916Z,34.00
2018-01-03T22:38:19.488Z,25.07
2018-01-03T22:40:47.104Z,25.33
2018-01-03T22:43:14.694Z,26.63
2018-01-03T22:45:42.278Z,25.57
2018-01-03T22:48:09.890Z,23.70
2018-01-03T22:50:37.575Z,25.50
2018-01-03T22:53:05.190Z,29.53
2018-01-03T22:55:32.831Z,28.53
2018-01-03T22:58:00.399Z,28.80
2018-01-03T23:00:27.983Z,24.87
2018-01-03T23:02:55.592Z,32.40
2018-01-03T23:05:23.185Z,29.58
2018-01-03T23:07:50.766Z,36.07
2018-01-03T23:10:18.388Z,35.33
2018-01-03T23:12:45.957Z,33.87
2018-01-03T23:15:13.562Z,34.60
2018-01-03T23:17:41.377Z,35.53
2018-01-03T23:20:08.956Z,36.83
2018-01-03T23:22:36.591Z,33.50
2018-01-03T23:25:04.174Z,35.10
2018-01-03T23:27:31.762Z,36.00
2018-01-03T23:29:59.361Z,32.50
2018-01-03T23:32:26.950Z,31.80
2018-01-03T23:34:54.678Z,32.30
2018-01-03T23:37:22.399Z,32.80
2018-01-03T23:39:49.987Z,33.73
2018-01-03T23:42:18.486Z,31.47
2018-01-03T23:44:47.851Z,30.73
2018-01-03T23:47:15.582Z,34.67
2018-01-03T23:49:43.249Z,34.50
2018-01-03T23:52:11.769Z,35.60
2018-01-03T23:54:41.825Z,35.37
2018-01-03T23:57:13.736Z,33.37
2018-01-03T23:59:41.358Z,36.47
